Terminal Aerodrome Forecast
Issued by NWS

Home | Current Version | Previous Version | Text Only | Print | Product List | Glossary On
Versions: 1 2 3 4 5 6 7 8 9 10 11 12 13 14 15 16 17 18 19 20 21 22 23 24 25
710
FTUS43 KLOT 171120
TAFDPA
TAF
KDPA 171120Z 1712/1812 21012KT P6SM VCSH SCT010 BKN015 OVC035
      TEMPO 1712/1714 5SM SHRA BR
     FM171500 22012G18KT P6SM SCT025 BKN030
     FM171700 24018G26KT P6SM BKN050
     FM180100 26013G20KT P6SM BKN050
     FM180600 28010KT P6SM SCT040=

USA.gov is the U.S. government's official web portal to all federal, state and local government web resources and services.